Time;durP1;ratioP1;P1;durP2;ratioP2;P2;SDS_P1;SDS_P2;PMS_P1;PMS_P2;Temp;Humidity;BMP_temperature;BMP_pressure;BME280_temperature;BME280_humidity;BME280_pressure;Samples;Min_cycle;Max_cycle;Signal;HPM_P1;HPM_P2
2022/08/17 00:02:16;;;;;;;6.43;5.83;;;22.60;64.80;;;;;;5087196;28;20992;-52
2022/08/17 00:04:53;;;;;;;7.00;6.40;;;22.60;64.70;;;;;;5086114;28;20467;-52
2022/08/17 00:07:20;;;;;;;7.40;6.80;;;22.50;64.80;;;;;;5068123;28;20505;-52
2022/08/17 00:09:47;;;;;;;7.07;6.47;;;22.50;64.90;;;;;;5085215;28;20460;-52
2022/08/17 00:12:13;;;;;;;7.07;6.43;;;22.50;65.10;;;;;;5069465;28;20464;-52
2022/08/17 00:15:00;;;;;;;6.57;6.07;;;22.40;65.20;;;;;;5088390;28;20455;-52
2022/08/17 00:17:27;;;;;;;7.53;6.83;;;22.40;65.30;;;;;;5086044;28;20961;-52
2022/08/17 00:19:53;;;;;;;9.70;6.60;;;22.40;65.20;;;;;;5089830;28;20537;-52
2022/08/17 00:22:20;;;;;;;7.80;7.20;;;22.40;65.30;;;;;;5071553;28;20476;-52
2022/08/17 00:25:06;;;;;;;7.30;6.30;;;22.40;65.40;;;;;;5088612;28;20466;-52
2022/08/17 00:27:33;;;;;;;7.83;6.10;;;22.40;65.50;;;;;;5086741;28;20928;-52
2022/08/17 00:30:00;;;;;;;9.10;6.50;;;22.40;65.50;;;;;;5066288;28;20467;-52
2022/08/17 00:32:27;;;;;;;8.07;5.43;;;22.40;65.60;;;;;;5085030;28;20899;-52
2022/08/17 00:35:16;;;;;;;7.97;7.07;;;22.30;65.70;;;;;;5087225;28;20479;-52
2022/08/17 00:37:43;;;;;;;7.50;6.73;;;22.30;65.70;;;;;;5087276;28;20453;-53
2022/08/17 00:40:12;;;;;;;7.30;6.60;;;22.30;65.90;;;;;;5068977;28;20455;-52
2022/08/17 00:42:40;;;;;;;8.53;7.20;;;22.30;65.80;;;;;;5083607;28;20480;-52
2022/08/17 00:45:10;;;;;;;7.37;6.20;;;22.30;65.70;;;;;;5069041;28;20455;-52
2022/08/17 00:47:37;;;;;;;7.37;6.53;;;22.20;65.80;;;;;;5085058;28;20456;-52
2022/08/17 00:50:06;;;;;;;8.73;7.13;;;22.20;65.90;;;;;;5087285;28;20456;-52
2022/08/17 00:52:38;;;;;;;7.80;7.10;;;22.20;65.90;;;;;;5083027;28;21007;-52
2022/08/17 00:55:06;;;;;;;7.40;6.53;;;22.20;65.90;;;;;;5072190;28;20463;-52
2022/08/17 00:57:38;;;;;;;9.10;7.17;;;22.20;66.10;;;;;;5087204;28;20503;-52
2022/08/17 01:00:20;;;;;;;7.53;6.83;;;22.20;66.10;;;;;;5084532;28;20559;-52
2022/08/17 01:02:47;;;;;;;8.23;6.50;;;22.20;66.30;;;;;;5084838;28;20490;-52
2022/08/17 01:05:18;;;;;;;8.10;7.23;;;22.10;66.40;;;;;;5085013;28;20468;-52
2022/08/17 01:07:48;;;;;;;8.03;7.07;;;22.10;66.40;;;;;;5084740;28;20472;-52
2022/08/17 01:10:16;;;;;;;7.83;7.00;;;22.00;66.50;;;;;;5084173;28;20452;-52
2022/08/17 01:13:03;;;;;;;7.80;7.00;;;22.10;66.60;;;;;;5085016;28;20581;-52
2022/08/17 01:15:37;;;;;;;8.00;7.17;;;22.00;66.70;;;;;;5084921;28;20468;-52
2022/08/17 01:18:07;;;;;;;7.90;6.97;;;22.00;66.70;;;;;;5085911;28;20956;-52
2022/08/17 01:20:38;;;;;;;9.20;7.53;;;22.00;66.60;;;;;;5069801;28;20539;-52
2022/08/17 01:23:15;;;;;;;9.57;6.40;;;22.00;66.60;;;;;;5084203;28;20482;-52
2022/08/17 01:25:52;;;;;;;7.70;6.90;;;22.00;66.60;;;;;;5084798;28;20501;-52
2022/08/17 01:28:21;;;;;;;7.40;6.70;;;22.00;66.70;;;;;;5084725;28;20456;-52
2022/08/17 01:31:09;;;;;;;7.53;6.80;;;22.00;66.70;;;;;;5083798;28;20456;-52
2022/08/17 01:33:36;;;;;;;7.10;6.40;;;21.90;66.90;;;;;;5065751;28;20692;-52
2022/08/17 01:36:05;;;;;;;8.03;6.93;;;21.90;67.00;;;;;;5083059;28;20501;-52
2022/08/17 01:38:34;;;;;;;11.20;7.07;;;21.90;66.90;;;;;;5086131;28;20475;-52
2022/08/17 01:41:08;;;;;;;8.03;6.47;;;21.90;66.90;;;;;;5070273;28;20521;-52
2022/08/17 01:43:52;;;;;;;8.23;7.43;;;21.90;67.00;;;;;;5086952;28;20457;-52
2022/08/17 01:46:23;;;;;;;7.77;6.97;;;21.90;67.30;;;;;;5070789;28;20459;-52
2022/08/17 01:48:50;;;;;;;7.43;6.77;;;21.90;66.90;;;;;;5087109;28;20456;-52
2022/08/17 01:51:17;;;;;;;7.50;6.80;;;21.90;66.90;;;;;;5072185;28;20511;-52
2022/08/17 01:53:51;;;;;;;7.70;6.97;;;21.90;66.20;;;;;;5091577;28;20460;-52
2022/08/17 01:56:20;;;;;;;9.17;7.70;;;21.90;66.00;;;;;;5090794;28;20460;-52
2022/08/17 01:58:48;;;;;;;7.10;6.40;;;21.90;65.90;;;;;;5091485;28;20467;-52
2022/08/17 02:01:18;;;;;;;8.03;7.23;;;21.90;65.90;;;;;;5088582;28;20861;-52
2022/08/17 02:03:45;;;;;;;6.97;6.20;;;21.90;65.90;;;;;;5088318;28;20805;-52
2022/08/17 02:06:29;;;;;;;7.10;6.40;;;21.80;66.20;;;;;;5088451;28;20518;-52
2022/08/17 02:08:57;;;;;;;8.30;7.60;;;21.70;66.40;;;;;;5071165;28;20545;-52
2022/08/17 02:11:31;;;;;;;7.10;6.40;;;21.70;66.40;;;;;;5086818;28;20472;-52
2022/08/17 02:13:59;;;;;;;7.63;6.70;;;21.70;66.50;;;;;;5089947;28;20472;-52
2022/08/17 02:16:29;;;;;;;7.60;6.80;;;21.70;66.60;;;;;;5086454;28;20461;-52
2022/08/17 02:19:06;;;;;;;6.80;6.20;;;21.70;66.70;;;;;;5086875;28;20459;-52
2022/08/17 02:21:33;;;;;;;6.43;5.67;;;21.70;66.60;;;;;;5086725;28;20493;-52
2022/08/17 02:24:00;;;;;;;7.20;6.50;;;21.60;66.40;;;;;;5089368;28;20456;-52
2022/08/17 02:26:27;;;;;;;8.30;7.00;;;21.60;66.40;;;;;;5071366;28;20958;-52
2022/08/17 02:28:53;;;;;;;7.50;6.90;;;21.60;66.70;;;;;;5071669;28;20977;-53
2022/08/17 02:31:20;;;;;;;7.17;6.47;;;21.60;66.80;;;;;;5088674;28;20457;-53
2022/08/17 02:33:47;;;;;;;7.03;6.37;;;21.50;67.00;;;;;;5087497;28;20452;-53
2022/08/17 02:36:30;;;;;;;7.20;6.50;;;21.50;67.10;;;;;;5072943;28;20833;-53
2022/08/17 02:38:57;;;;;;;7.57;6.83;;;21.50;67.10;;;;;;5067298;28;20472;-53
2022/08/17 02:41:24;;;;;;;7.70;6.97;;;21.50;67.10;;;;;;5089573;28;20491;-53
2022/08/17 02:43:51;;;;;;;7.80;6.00;;;21.50;67.10;;;;;;5087051;28;20469;-53
2022/08/17 02:46:18;;;;;;;6.40;5.80;;;21.50;67.30;;;;;;5087486;28;20460;-53
2022/08/17 02:48:45;;;;;;;8.33;6.50;;;21.50;67.20;;;;;;5070197;28;20807;-53
2022/08/17 02:51:12;;;;;;;8.60;6.27;;;21.50;67.20;;;;;;5086160;28;20468;-50
2022/08/17 02:53:38;;;;;;;7.30;6.53;;;21.50;67.10;;;;;;5083279;28;20472;-50
2022/08/17 02:56:05;;;;;;;7.50;6.70;;;21.50;66.70;;;;;;5070766;28;20483;-52
2022/08/17 02:58:32;;;;;;;10.83;6.80;;;21.50;67.00;;;;;;5088678;28;20854;-53
2022/08/17 03:01:04;;;;;;;6.63;5.87;;;21.40;67.10;;;;;;5072933;28;20461;-53
2022/08/17 03:03:31;;;;;;;6.90;6.27;;;21.40;67.20;;;;;;5066942;28;20456;-53
2022/08/17 03:05:58;;;;;;;7.10;6.50;;;21.40;67.10;;;;;;5088110;28;20471;-53
2022/08/17 03:08:26;;;;;;;8.20;6.40;;;21.40;67.20;;;;;;5087404;28;20844;-53
2022/08/17 03:10:52;;;;;;;9.93;5.80;;;21.40;67.10;;;;;;5085824;28;20454;-53
2022/08/17 03:13:19;;;;;;;7.00;6.00;;;21.40;67.20;;;;;;5089082;28;20467;-53
2022/08/17 03:15:47;;;;;;;7.47;5.83;;;21.30;67.30;;;;;;5088287;28;20885;-53
2022/08/17 03:18:18;;;;;;;7.73;6.93;;;21.30;67.40;;;;;;5085098;28;20836;-53
2022/08/17 03:20:57;;;;;;;6.50;6.00;;;21.30;67.60;;;;;;5088535;28;20883;-53
2022/08/17 03:23:24;;;;;;;8.10;6.83;;;21.30;67.70;;;;;;5089492;28;20460;-53
2022/08/17 03:25:52;;;;;;;7.67;6.13;;;21.30;67.70;;;;;;5090454;28;20460;-53
2022/08/17 03:28:21;;;;;;;7.37;6.70;;;21.30;67.80;;;;;;5064989;28;20460;-53
2022/08/17 03:30:49;;;;;;;8.10;5.50;;;21.30;67.80;;;;;;5051630;28;20461;-53
2022/08/17 03:33:17;;;;;;;6.73;6.20;;;21.30;67.80;;;;;;5089732;28;20964;-53
2022/08/17 03:35:43;;;;;;;7.87;7.10;;;21.30;67.80;;;;;;5087578;28;20461;-53
2022/08/17 03:38:11;;;;;;;7.70;6.30;;;21.30;68.00;;;;;;5089840;28;20461;-53
2022/08/17 03:40:42;;;;;;;7.30;6.60;;;21.30;68.00;;;;;;5071768;28;20457;-53
2022/08/17 03:43:29;;;;;;;8.43;6.40;;;21.30;68.00;;;;;;5089067;28;20491;-53
2022/08/17 03:57:18;;;;;;;9.20;6.90;;;21.30;67.90;;;;;;5071557;28;20484;-53
2022/08/17 03:59:45;;;;;;;6.20;5.50;;;21.20;67.90;;;;;;5063549;28;20527;-53
2022/08/17 04:02:25;;;;;;;8.80;5.70;;;21.20;67.90;;;;;;5085503;28;20484;-53
2022/08/17 04:04:53;;;;;;;6.80;6.10;;;21.20;67.90;;;;;;5081613;28;20463;-53
2022/08/17 04:07:22;;;;;;;6.97;6.37;;;21.20;67.90;;;;;;5087496;28;20476;-53
2022/08/17 04:09:49;;;;;;;7.87;6.03;;;21.20;67.70;;;;;;5087710;28;20463;-53
2022/08/17 04:12:20;;;;;;;7.83;7.10;;;21.20;67.90;;;;;;5086499;28;21014;-54
2022/08/17 04:14:47;;;;;;;7.67;6.47;;;21.20;67.90;;;;;;5086790;28;20461;-53
2022/08/17 04:17:25;;;;;;;6.33;5.67;;;21.20;67.80;;;;;;5085648;28;20978;-53
2022/08/17 04:19:52;;;;;;;9.33;6.87;;;21.20;67.70;;;;;;5087168;28;20683;-53
2022/08/17 04:22:19;;;;;;;8.13;7.17;;;21.30;67.40;;;;;;5090591;28;20481;-53
2022/08/17 04:25:15;;;;;;;7.47;6.77;;;21.30;67.50;;;;;;5087030;28;20525;-53
2022/08/17 04:27:42;;;;;;;7.53;6.60;;;21.30;67.70;;;;;;5088554;28;20539;-53
2022/08/17 04:30:10;;;;;;;8.40;6.30;;;21.20;67.70;;;;;;5068352;28;20461;-53
2022/08/17 04:32:57;;;;;;;8.03;6.60;;;21.20;67.60;;;;;;5069461;28;20461;-53
2022/08/17 04:35:37;;;;;;;7.73;7.00;;;21.20;67.50;;;;;;5085961;28;20542;-52
2022/08/17 04:38:05;;;;;;;8.43;7.50;;;21.30;67.20;;;;;;5085280;28;20472;-52
2022/08/17 04:43:20;;;;;;;6.47;5.70;;;21.30;66.90;;;;;;5085985;28;20495;-53
2022/08/17 04:45:50;;;;;;;7.37;6.57;;;21.30;66.90;;;;;;5085658;28;21133;-53
2022/08/17 04:48:28;;;;;;;7.20;6.50;;;21.20;67.00;;;;;;5087712;28;20453;-53
2022/08/17 04:51:15;;;;;;;7.93;6.13;;;21.20;67.30;;;;;;5059208;28;20464;-53
2022/08/17 04:53:45;;;;;;;8.70;7.33;;;21.30;67.30;;;;;;5069084;28;20448;-53
2022/08/17 04:56:20;;;;;;;10.90;7.90;;;21.20;67.60;;;;;;5085202;28;20456;-53
2022/08/17 04:58:50;;;;;;;7.63;6.93;;;21.20;67.60;;;;;;5068265;28;20448;-53
2022/08/17 05:01:18;;;;;;;8.27;6.73;;;21.20;68.00;;;;;;5083172;28;20473;-53
2022/08/17 05:03:55;;;;;;;7.17;6.47;;;21.30;68.00;;;;;;5083760;28;20468;-53
2022/08/17 05:06:22;;;;;;;6.53;5.93;;;21.30;68.20;;;;;;5063051;28;20542;-53
2022/08/17 05:08:49;;;;;;;10.97;7.10;;;21.30;68.30;;;;;;5085160;28;20465;-53
2022/08/17 05:11:16;;;;;;;11.13;6.13;;;21.30;68.30;;;;;;5083024;28;20494;-53
2022/08/17 05:13:43;;;;;;;7.70;7.00;;;21.30;68.00;;;;;;5065558;28;20482;-53
2022/08/17 05:16:10;;;;;;;6.77;5.60;;;21.40;68.20;;;;;;5080071;28;20942;-53
2022/08/17 05:18:37;;;;;;;8.80;6.37;;;21.40;68.10;;;;;;5084282;28;23147;-53
2022/08/17 05:21:05;;;;;;;6.97;6.27;;;21.40;67.90;;;;;;5060703;28;20457;-52
2022/08/17 05:23:33;;;;;;;7.90;7.20;;;21.50;67.70;;;;;;5085551;28;20480;-52
2022/08/17 05:26:11;;;;;;;8.27;6.63;;;21.50;67.70;;;;;;5086651;28;20832;-52
2022/08/17 05:28:57;;;;;;;7.60;6.10;;;21.60;67.40;;;;;;5086113;28;21023;-52
2022/08/17 05:31:29;;;;;;;8.50;5.77;;;21.70;67.30;;;;;;5067691;28;20541;-52
2022/08/17 05:33:56;;;;;;;7.10;6.33;;;21.70;67.60;;;;;;5080110;28;20543;-52
2022/08/17 05:36:23;;;;;;;7.60;6.80;;;21.80;67.70;;;;;;5085015;28;20464;-52
2022/08/17 05:39:13;;;;;;;10.03;6.77;;;21.80;67.60;;;;;;5085176;28;20555;-52
2022/08/17 05:41:43;;;;;;;6.87;6.17;;;21.90;67.60;;;;;;5086920;28;20448;-52
2022/08/17 05:44:10;;;;;;;7.70;6.90;;;21.90;67.70;;;;;;5068390;28;20488;-52
2022/08/17 05:46:40;;;;;;;9.07;6.30;;;21.90;67.40;;;;;;5066379;28;20455;-55
2022/08/17 05:49:08;;;;;;;8.23;5.87;;;22.00;67.10;;;;;;5086435;28;20456;-53
2022/08/17 05:51:54;;;;;;;6.93;6.43;;;22.00;66.90;;;;;;5084593;28;20457;-52
2022/08/17 05:54:46;;;;;;;7.20;6.47;;;22.00;66.70;;;;;;5084298;28;20459;-53
2022/08/17 05:57:36;;;;;;;6.27;5.67;;;22.10;66.50;;;;;;5081992;28;20481;-52
2022/08/17 06:00:26;;;;;;;9.00;6.70;;;22.20;66.30;;;;;;5063970;28;20461;-53
2022/08/17 06:03:15;;;;;;;7.47;6.40;;;22.20;66.30;;;;;;5086263;28;20567;-53
2022/08/17 06:05:45;;;;;;;8.00;7.23;;;22.30;66.40;;;;;;5088803;28;20463;-53
2022/08/17 06:08:29;;;;;;;6.83;6.00;;;22.30;66.40;;;;;;5089839;28;20467;-53
2022/08/17 06:11:19;;;;;;;9.60;6.40;;;22.30;66.40;;;;;;5084968;28;20458;-53
2022/08/17 06:14:27;;;;;;;7.73;6.90;;;22.40;66.30;;;;;;5089236;28;21037;-53
2022/08/17 06:17:08;;;;;;;7.53;6.73;;;22.40;65.70;;;;;;5082151;28;20464;-53
2022/08/17 06:19:53;;;;;;;8.70;7.00;;;22.50;65.60;;;;;;5085137;28;20461;-53
2022/08/17 06:22:23;;;;;;;7.80;6.50;;;22.50;65.70;;;;;;5068909;28;20856;-53
2022/08/17 06:25:00;;;;;;;7.33;6.63;;;22.60;65.60;;;;;;5069198;28;20487;-53
2022/08/17 06:27:43;;;;;;;7.67;6.97;;;22.60;65.40;;;;;;5085285;28;20456;-53
2022/08/17 06:30:20;;;;;;;7.80;7.10;;;22.70;65.40;;;;;;5089136;28;20693;-51
2022/08/17 06:32:49;;;;;;;7.47;5.53;;;22.70;65.40;;;;;;5059044;28;20549;-50
2022/08/17 06:35:32;;;;;;;7.27;6.53;;;22.80;65.20;;;;;;5068659;28;20986;-50
2022/08/17 06:38:13;;;;;;;7.43;6.30;;;22.80;64.70;;;;;;5067333;28;20456;-50
2022/08/17 06:41:18;;;;;;;7.20;6.23;;;22.80;64.40;;;;;;5072117;28;20460;-50
2022/08/17 06:44:16;;;;;;;7.13;6.43;;;22.90;64.30;;;;;;5067422;28;20524;-51
2022/08/17 06:47:12;;;;;;;7.17;6.03;;;22.90;63.80;;;;;;5084269;28;20984;-50
2022/08/17 06:50:19;;;;;;;11.33;6.40;;;23.00;63.70;;;;;;5069641;28;20543;-50
2022/08/17 06:53:04;;;;;;;6.27;5.73;;;23.00;63.50;;;;;;5085539;28;20469;-53
2022/08/17 06:55:45;;;;;;;7.00;6.30;;;23.00;63.50;;;;;;5085564;28;20471;-53
2022/08/17 06:58:16;;;;;;;8.70;6.03;;;23.00;63.80;;;;;;5069104;28;20494;-53
2022/08/17 07:00:53;;;;;;;12.53;7.20;;;23.00;64.10;;;;;;5071566;28;20491;-52
2022/08/17 07:03:55;;;;;;;7.90;7.10;;;23.10;64.30;;;;;;5086509;28;20507;-50
2022/08/17 07:06:28;;;;;;;8.93;7.10;;;23.10;64.20;;;;;;5083635;28;20473;-50
2022/08/17 07:09:01;;;;;;;7.60;6.40;;;23.10;64.20;;;;;;5066427;28;20957;-50
2022/08/17 07:11:38;;;;;;;6.83;6.10;;;23.10;64.30;;;;;;5089249;28;20468;-51
2022/08/17 07:14:29;;;;;;;6.40;5.80;;;23.10;63.90;;;;;;5093578;28;20463;-53
2022/08/17 07:17:00;;;;;;;11.37;6.40;;;23.10;63.20;;;;;;5071888;28;20797;-53
2022/08/17 07:19:31;;;;;;;6.87;6.07;;;23.20;62.60;;;;;;5065651;28;20452;-53
2022/08/17 07:22:17;;;;;;;6.30;5.60;;;23.20;62.30;;;;;;5081738;28;20468;-50
2022/08/17 07:24:56;;;;;;;6.17;5.57;;;23.20;62.00;;;;;;5087278;28;20437;-50
2022/08/17 07:27:36;;;;;;;6.87;5.33;;;23.20;61.70;;;;;;5082379;28;20455;-53
2022/08/17 07:30:05;;;;;;;7.40;6.70;;;23.20;61.50;;;;;;5072103;28;20457;-53
2022/08/17 07:32:44;;;;;;;5.60;5.10;;;23.30;61.30;;;;;;5091262;28;20527;-53
2022/08/17 07:35:29;;;;;;;6.17;5.53;;;23.30;61.30;;;;;;5089530;28;20459;-53
2022/08/17 07:38:26;;;;;;;319.50;30.23;;;23.30;61.60;;;;;;5088841;28;20945;-53
2022/08/17 07:40:56;;;;;;;82.00;11.10;;;23.30;61.60;;;;;;5090869;28;20463;-54
2022/08/17 07:43:29;;;;;;;184.03;23.30;;;23.30;61.80;;;;;;5074016;28;20492;-53
2022/08/17 07:49:06;;;;;;;120.73;18.40;;;23.40;62.40;;;;;;5090164;28;20460;-53
2022/08/17 07:51:46;;;;;;;49.13;8.67;;;23.40;64.90;;;;;;5073235;28;20512;-53
2022/08/17 07:54:26;;;;;;;486.33;48.80;;;23.40;65.10;;;;;;5092753;28;20471;-52
2022/08/17 07:56:54;;;;;;;23.63;8.27;;;23.40;67.20;;;;;;5091964;28;20484;-52
2022/08/17 07:59:41;;;;;;;26.80;8.40;;;23.30;67.70;;;;;;5091635;28;20884;-53
2022/08/17 08:02:20;;;;;;;14.93;6.33;;;23.30;68.70;;;;;;5088958;28;20468;-53
2022/08/17 08:05:11;;;;;;;7.80;6.30;;;23.30;68.80;;;;;;5090813;28;20496;-52
2022/08/17 08:08:00;;;;;;;283.73;25.33;;;23.20;70.00;;;;;;5066885;28;20474;-52
2022/08/17 08:10:37;;;;;;;21.37;7.37;;;23.30;69.40;;;;;;5067587;28;20455;-52
2022/08/17 08:13:26;;;;;;;64.40;13.30;;;23.30;69.40;;;;;;5072130;28;20440;-52
2022/08/17 08:15:55;;;;;;;13.17;8.40;;;23.20;68.90;;;;;;5073330;28;20953;-53
2022/08/17 08:18:25;;;;;;;11.87;8.77;;;23.10;68.70;;;;;;5081950;28;20460;-52
2022/08/17 08:21:20;;;;;;;22.40;9.50;;;23.10;69.00;;;;;;5069711;28;20455;-52
2022/08/17 08:24:21;;;;;;;26.93;11.30;;;23.00;68.10;;;;;;5086304;28;20493;-52
2022/08/17 08:27:07;;;;;;;43.17;11.50;;;23.00;68.60;;;;;;5080221;28;20451;-53
2022/08/17 08:29:40;;;;;;;9.70;8.70;;;22.90;69.10;;;;;;5083299;28;20834;-53
2022/08/17 08:32:10;;;;;;;377.30;38.43;;;22.90;68.90;;;;;;5086714;28;20456;-53
2022/08/17 08:35:11;;;;;;;17.00;9.37;;;22.90;68.70;;;;;;5090968;28;20452;-53
2022/08/17 08:37:55;;;;;;;14.03;8.63;;;23.00;68.70;;;;;;5076076;28;20795;-53
2022/08/17 08:40:44;;;;;;;9.50;7.63;;;23.00;68.80;;;;;;5087723;28;20459;-53
2022/08/17 08:43:14;;;;;;;9.40;8.50;;;23.00;68.50;;;;;;5072478;28;20487;-53
2022/08/17 08:45:57;;;;;;;11.80;8.40;;;23.00;68.00;;;;;;5077843;28;20457;-53
2022/08/17 08:49:01;;;;;;;9.70;8.50;;;23.00;67.80;;;;;;5091788;28;20456;-53
2022/08/17 08:51:57;;;;;;;14.03;7.90;;;23.10;67.20;;;;;;5090535;28;20482;-53
2022/08/17 08:54:55;;;;;;;9.57;7.50;;;23.10;67.10;;;;;;5085825;28;20828;-53
2022/08/17 08:57:32;;;;;;;21.63;8.43;;;23.00;67.10;;;;;;5068179;28;20476;-54
2022/08/17 09:00:13;;;;;;;8.77;7.87;;;23.00;66.90;;;;;;5082165;28;20949;-54
2022/08/17 09:02:58;;;;;;;9.90;7.63;;;23.00;67.20;;;;;;5081971;28;20463;-53
2022/08/17 09:05:55;;;;;;;8.10;7.37;;;23.00;67.30;;;;;;5084198;28;20829;-53
2022/08/17 09:08:28;;;;;;;9.00;8.10;;;23.00;67.50;;;;;;5064559;28;20460;-53
2022/08/17 09:11:13;;;;;;;8.57;7.77;;;23.00;67.30;;;;;;5079330;28;20454;-53
2022/08/17 09:14:06;;;;;;;7.90;7.20;;;23.00;67.30;;;;;;5086605;28;20467;-53
2022/08/17 09:17:01;;;;;;;8.77;7.87;;;23.00;67.70;;;;;;5071231;28;20450;-53
2022/08/17 09:19:37;;;;;;;12.43;8.50;;;23.00;67.80;;;;;;5086960;28;20483;-53
2022/08/17 09:22:29;;;;;;;8.50;7.70;;;23.00;67.40;;;;;;5078537;28;20988;-53
2022/08/17 09:24:55;;;;;;;10.03;9.00;;;23.00;67.40;;;;;;5084655;28;20455;-53
2022/08/17 09:27:29;;;;;;;9.80;9.00;;;23.10;67.40;;;;;;5085137;28;20464;-54
2022/08/17 09:30:01;;;;;;;8.50;7.70;;;23.00;66.90;;;;;;5088008;28;20452;-53
2022/08/17 09:32:44;;;;;;;11.10;9.37;;;23.10;66.70;;;;;;5079666;28;20465;-53
2022/08/17 09:35:18;;;;;;;12.13;8.57;;;23.10;66.70;;;;;;5081296;28;20547;-54
2022/08/17 09:38:13;;;;;;;15.57;9.00;;;23.30;66.30;;;;;;5081922;28;20458;-54
2022/08/17 09:41:04;;;;;;;9.90;8.27;;;23.50;66.20;;;;;;5083491;28;20456;-54
2022/08/17 09:43:49;;;;;;;10.63;8.70;;;23.70;65.60;;;;;;5059877;28;20488;-54
2022/08/17 09:46:21;;;;;;;16.80;8.67;;;24.00;65.00;;;;;;5056515;28;20458;-54
2022/08/17 09:48:55;;;;;;;15.67;7.73;;;24.20;64.30;;;;;;5078728;28;20448;-54
2022/08/17 09:51:35;;;;;;;27.77;8.80;;;24.30;63.60;;;;;;5058419;28;20911;-55
2022/08/17 09:54:03;;;;;;;9.53;7.33;;;24.40;63.20;;;;;;5060376;28;22358;-54
2022/08/17 09:57:27;;;;;;;8.40;7.27;;;24.50;62.80;;;;;;5078392;28;20546;-53
2022/08/17 10:00:14;;;;;;;8.00;7.30;;;24.60;62.40;;;;;;5063322;28;20462;-53
2022/08/17 10:03:21;;;;;;;11.27;7.70;;;24.60;62.20;;;;;;5078588;28;20467;-53
2022/08/17 10:05:55;;;;;;;16.73;7.47;;;24.60;62.10;;;;;;5071579;28;20459;-53
2022/08/17 10:08:51;;;;;;;10.17;7.10;;;24.60;62.00;;;;;;5091168;28;20923;-52
2022/08/17 10:14:36;;;;;;;41.80;12.63;;;24.70;61.80;;;;;;5087076;28;20455;-54
2022/08/17 10:17:13;;;;;;;19.13;8.30;;;24.70;61.70;;;;;;5066959;28;20459;-54
2022/08/17 10:19:59;;;;;;;18.93;8.63;;;24.80;61.70;;;;;;5089031;28;20444;-54
2022/08/17 10:28:38;;;;;;;12.13;8.03;;;24.80;61.40;;;;;;5091472;28;20687;-54
2022/08/17 10:31:08;;;;;;;9.33;7.80;;;24.80;61.40;;;;;;5085685;28;20468;-54
2022/08/17 10:34:19;;;;;;;10.33;7.07;;;24.80;61.40;;;;;;5081342;28;20889;-53
2022/08/17 10:36:54;;;;;;;7.10;6.40;;;24.80;61.40;;;;;;5080883;28;20452;-53
2022/08/17 10:39:53;;;;;;;8.00;7.30;;;24.80;61.50;;;;;;5083979;28;20451;-53
2022/08/17 10:42:27;;;;;;;11.80;8.53;;;24.80;61.60;;;;;;5089299;28;20470;-53
2022/08/17 10:45:04;;;;;;;13.63;8.03;;;24.80;61.60;;;;;;5088170;28;20528;-53
2022/08/17 10:47:58;;;;;;;27.93;10.17;;;24.90;61.60;;;;;;5069735;28;20824;-53
2022/08/17 10:50:54;;;;;;;10.93;7.73;;;24.80;61.50;;;;;;5088463;28;20833;-54
2022/08/17 10:53:30;;;;;;;8.43;7.63;;;24.90;61.40;;;;;;5086162;28;20464;-54
2022/08/17 10:56:12;;;;;;;8.00;6.83;;;25.00;61.10;;;;;;5087933;28;20466;-54
2022/08/17 10:58:54;;;;;;;10.43;8.30;;;25.00;61.10;;;;;;5069322;28;20475;-54
2022/08/17 11:01:36;;;;;;;13.63;7.90;;;25.00;61.10;;;;;;5069699;28;20452;-54
2022/08/17 11:04:08;;;;;;;10.70;8.67;;;25.00;61.00;;;;;;5086536;28;20494;-54
2022/08/17 11:06:50;;;;;;;12.03;8.53;;;25.10;60.80;;;;;;5059394;28;20494;-54
2022/08/17 11:09:50;;;;;;;12.47;8.10;;;25.20;61.10;;;;;;5066687;28;20444;-54
2022/08/17 11:12:29;;;;;;;7.43;6.57;;;25.20;61.30;;;;;;5083320;28;20469;-54
2022/08/17 11:15:23;;;;;;;8.93;8.00;;;25.20;60.90;;;;;;5064986;28;20464;-54
2022/08/17 11:18:27;;;;;;;10.40;8.33;;;25.30;61.50;;;;;;5088025;28;20460;-54
2022/08/17 11:21:06;;;;;;;8.63;7.73;;;25.40;62.40;;;;;;5085199;28;20487;-54
2022/08/17 11:24:01;;;;;;;9.07;8.23;;;25.30;63.00;;;;;;5064030;28;21020;-54
2022/08/17 11:26:30;;;;;;;9.33;8.07;;;25.40;63.00;;;;;;5068568;28;20461;-54
2022/08/17 11:29:08;;;;;;;11.33;8.73;;;25.50;62.90;;;;;;5087981;28;20462;-54
2022/08/17 11:31:45;;;;;;;7.97;7.17;;;25.50;62.50;;;;;;5068718;28;20452;-54
2022/08/17 11:34:25;;;;;;;8.40;7.60;;;25.60;62.50;;;;;;5079874;28;20836;-54
2022/08/17 11:37:07;;;;;;;10.27;7.00;;;25.70;62.20;;;;;;5085424;28;20467;-54
2022/08/17 11:40:04;;;;;;;6.33;5.83;;;25.70;61.30;;;;;;5081931;28;20464;-54
2022/08/17 11:42:58;;;;;;;8.27;7.43;;;25.80;60.00;;;;;;5059569;28;20472;-54
2022/08/17 11:45:43;;;;;;;7.23;6.50;;;25.90;59.60;;;;;;5066878;28;20496;-54
2022/08/17 11:54:30;;;;;;;7.80;7.00;;;26.00;58.70;;;;;;5031909;28;20471;-54
2022/08/17 11:57:25;;;;;;;7.57;6.80;;;26.10;58.80;;;;;;5086079;28;20476;-54
2022/08/17 12:00:09;;;;;;;7.10;6.47;;;26.10;58.90;;;;;;5081899;28;20504;-54
2022/08/17 12:02:43;;;;;;;6.90;6.17;;;26.10;58.60;;;;;;5086115;28;20456;-54
2022/08/17 12:05:15;;;;;;;7.40;6.30;;;26.10;58.40;;;;;;5085839;28;20491;-55
2022/08/17 12:07:47;;;;;;;7.20;6.03;;;26.10;58.20;;;;;;5080632;28;20468;-54
2022/08/17 12:10:20;;;;;;;7.40;6.23;;;26.20;58.20;;;;;;5065390;28;21038;-55
2022/08/17 12:12:51;;;;;;;6.30;5.70;;;26.20;57.90;;;;;;5085260;28;20486;-54
2022/08/17 12:15:31;;;;;;;7.00;6.07;;;26.20;57.60;;;;;;5086944;28;20554;-54
2022/08/17 12:17:58;;;;;;;6.10;5.50;;;26.30;57.40;;;;;;5069283;28;20525;-56
2022/08/17 12:20:32;;;;;;;7.23;6.50;;;26.30;57.20;;;;;;5086891;28;20461;-53
2022/08/17 12:23:24;;;;;;;24.20;8.13;;;26.40;56.90;;;;;;5071130;28;20836;-54
2022/08/17 12:26:05;;;;;;;7.20;6.50;;;26.40;56.80;;;;;;5090328;28;20459;-54
2022/08/17 12:28:37;;;;;;;6.50;6.00;;;26.40;56.80;;;;;;5085365;28;20459;-54
2022/08/17 12:31:14;;;;;;;8.00;6.17;;;26.40;56.80;;;;;;5082235;28;20464;-53
2022/08/17 12:33:44;;;;;;;7.70;6.93;;;26.40;57.10;;;;;;5089948;28;20467;-53
2022/08/17 12:36:15;;;;;;;6.57;5.93;;;26.40;56.90;;;;;;5066828;28;20464;-54
2022/08/17 12:38:56;;;;;;;10.03;6.50;;;26.40;56.80;;;;;;5070360;28;20459;-53
2022/08/17 12:41:33;;;;;;;6.83;6.07;;;26.40;56.90;;;;;;5066797;28;20460;-53
2022/08/17 12:44:05;;;;;;;7.00;6.40;;;26.40;57.00;;;;;;5066616;28;20483;-54
2022/08/17 12:46:43;;;;;;;8.40;7.00;;;26.40;57.00;;;;;;5083993;28;20443;-54
2022/08/17 12:49:34;;;;;;;8.70;6.60;;;26.50;57.20;;;;;;5086854;28;20463;-50
2022/08/17 12:52:18;;;;;;;7.33;6.83;;;26.50;56.70;;;;;;5078944;28;20539;-50
2022/08/17 12:54:53;;;;;;;6.97;5.97;;;26.50;56.80;;;;;;5084800;28;20452;-50
2022/08/17 12:57:33;;;;;;;6.73;6.23;;;26.40;56.60;;;;;;5082652;28;20495;-50
2022/08/17 13:00:16;;;;;;;6.70;6.10;;;26.40;56.80;;;;;;5068605;28;20484;-50
2022/08/17 13:03:07;;;;;;;7.83;5.77;;;26.50;56.70;;;;;;5065324;28;20838;-50
2022/08/17 13:05:41;;;;;;;6.63;6.03;;;26.50;56.70;;;;;;5087898;28;20496;-49
2022/08/17 13:08:15;;;;;;;6.80;6.27;;;26.50;56.50;;;;;;5092912;28;21028;-49
2022/08/17 13:10:42;;;;;;;6.50;5.90;;;26.60;56.30;;;;;;5091439;28;20448;-49
2022/08/17 13:13:25;;;;;;;7.10;5.80;;;26.60;55.80;;;;;;5092150;28;20907;-48
2022/08/17 13:15:59;;;;;;;8.07;5.97;;;26.60;55.60;;;;;;5090977;28;20803;-49
2022/08/17 13:18:33;;;;;;;6.17;5.67;;;26.70;55.40;;;;;;5091062;28;20456;-49
2022/08/17 13:21:01;;;;;;;7.80;6.13;;;26.80;55.20;;;;;;5092609;28;20466;-49
2022/08/17 13:23:30;;;;;;;27.13;7.07;;;26.80;55.30;;;;;;5092688;28;20491;-49
2022/08/17 13:26:04;;;;;;;6.40;5.87;;;26.80;55.70;;;;;;5092179;28;21444;-49
2022/08/17 13:28:32;;;;;;;7.27;6.50;;;26.90;55.40;;;;;;5077945;28;20471;-47
2022/08/17 13:31:39;;;;;;;5.90;5.50;;;26.90;55.20;;;;;;5077342;28;20459;-49
2022/08/17 13:34:25;;;;;;;10.37;6.00;;;27.00;55.20;;;;;;5092664;28;20470;-48
2022/08/17 13:37:18;;;;;;;85.87;16.90;;;27.00;55.20;;;;;;5069771;28;20456;-48
2022/08/17 13:39:48;;;;;;;6.30;5.80;;;27.00;54.30;;;;;;5099918;28;20462;-48
2022/08/17 13:42:41;;;;;;;10.00;6.20;;;27.00;54.70;;;;;;5082625;28;20600;-48
2022/08/17 13:45:31;;;;;;;29.97;7.37;;;27.10;55.10;;;;;;5094318;28;20487;-48
2022/08/17 13:48:15;;;;;;;8.50;5.97;;;27.10;54.60;;;;;;5097167;28;20463;-48
2022/08/17 13:50:54;;;;;;;6.03;5.53;;;27.10;54.90;;;;;;5081493;28;20490;-48
2022/08/17 13:53:22;;;;;;;5.40;4.87;;;27.10;54.40;;;;;;5095162;28;20468;-48
2022/08/17 13:55:51;;;;;;;5.40;5.00;;;27.20;53.90;;;;;;5079919;28;20459;-48
2022/08/17 13:58:26;;;;;;;6.47;5.90;;;27.20;53.10;;;;;;5099072;28;20490;-48
2022/08/17 14:00:55;;;;;;;6.03;5.50;;;27.20;53.60;;;;;;5080190;28;20471;-48
2022/08/17 14:03:22;;;;;;;6.40;5.80;;;27.30;53.50;;;;;;5098954;28;20474;-49
2022/08/17 14:05:51;;;;;;;6.20;5.20;;;27.20;53.60;;;;;;5088558;28;20484;-47
2022/08/17 14:08:19;;;;;;;7.00;6.40;;;27.20;54.00;;;;;;5088620;28;20459;-48